createdAt,value
2023-01-12T00:01:55.906Z,7.38
2023-01-12T00:04:23.560Z,7.31
2023-01-12T00:06:51.137Z,7.35
2023-01-12T00:09:18.625Z,7.30
2023-01-12T00:11:46.155Z,7.31
2023-01-12T00:14:15.451Z,7.29
2023-01-12T00:16:43.330Z,7.36
2023-01-12T00:19:12.764Z,7.44
2023-01-12T00:21:56.335Z,7.46
2023-01-12T00:24:25.567Z,7.51
2023-01-12T00:26:53.672Z,7.59
2023-01-12T00:29:23.161Z,7.63
2023-01-12T00:31:50.840Z,7.51
2023-01-12T00:34:18.332Z,7.57
2023-01-12T00:36:47.073Z,7.73
2023-01-12T00:39:15.028Z,7.66
2023-01-12T00:42:00.800Z,7.73
2023-01-12T00:44:47.154Z,7.82
2023-01-12T00:47:15.203Z,7.63
2023-01-12T00:49:43.305Z,7.63
2023-01-12T00:52:18.254Z,7.85
2023-01-12T00:54:52.924Z,7.64
2023-01-12T00:57:20.387Z,7.65
2023-01-12T00:59:49.243Z,7.43
2023-01-12T01:02:16.859Z,7.55
2023-01-12T01:04:44.466Z,7.58
2023-01-12T01:07:12.595Z,7.49
2023-01-12T01:09:44.225Z,7.57
2023-01-12T01:12:11.978Z,7.44
2023-01-12T01:14:39.617Z,7.59
2023-01-12T01:17:08.530Z,7.65
2023-01-12T01:19:36.942Z,7.48
2023-01-12T01:22:04.599Z,7.55
2023-01-12T01:24:32.095Z,7.43
2023-01-12T01:26:59.562Z,7.36
2023-01-12T01:29:27.052Z,7.28
2023-01-12T01:31:55.713Z,7.34
2023-01-12T01:34:24.655Z,7.34
2023-01-12T01:36:52.135Z,7.38
2023-01-12T01:39:19.742Z,7.29
2023-01-12T01:41:47.964Z,7.24
2023-01-12T01:44:51.100Z,7.47
2023-01-12T01:47:24.391Z,7.38
2023-01-12T01:49:55.498Z,7.70
2023-01-12T01:52:26.122Z,7.52
2023-01-12T01:54:56.108Z,7.54
2023-01-12T01:57:25.491Z,7.69
2023-01-12T01:59:55.530Z,7.52
2023-01-12T02:02:24.089Z,7.52
2023-01-12T02:04:54.184Z,7.53
2023-01-12T02:07:22.135Z,7.52
2023-01-12T02:09:52.058Z,7.52
2023-01-12T02:12:37.646Z,7.59
2023-01-12T02:15:24.976Z,7.58
2023-01-12T02:18:03.528Z,7.69
2023-01-12T02:20:59.125Z,7.54
2023-01-12T02:24:04.059Z,7.68
2023-01-12T02:27:18.902Z,7.44
2023-01-12T02:30:24.569Z,7.54
2023-01-12T02:33:01.671Z,7.64
2023-01-12T02:35:34.052Z,7.71
2023-01-12T02:38:08.147Z,7.56
2023-01-12T02:40:38.113Z,7.67
2023-01-12T02:43:10.144Z,7.63
2023-01-12T02:45:43.324Z,7.68
2023-01-12T02:48:24.082Z,7.59
2023-01-12T02:50:55.546Z,7.72
2023-01-12T02:53:25.993Z,7.73
2023-01-12T02:55:53.904Z,7.54
2023-01-12T02:58:25.759Z,7.68
2023-01-12T03:00:55.950Z,7.73
2023-01-12T03:03:25.716Z,7.76
2023-01-12T03:05:56.508Z,7.61
2023-01-12T03:08:34.811Z,7.71
2023-01-12T03:11:07.611Z,7.70
2023-01-12T03:13:37.172Z,7.81
2023-01-12T03:16:10.004Z,7.88
2023-01-12T03:18:45.032Z,8.02
2023-01-12T03:21:18.001Z,7.92
2023-01-12T03:23:48.503Z,7.97
2023-01-12T03:26:19.381Z,8.09
2023-01-12T03:28:51.052Z,7.84
2023-01-12T03:31:18.703Z,7.80
2023-01-12T03:33:47.719Z,7.94
2023-01-12T03:36:22.520Z,7.97
2023-01-12T03:38:59.056Z,7.97
2023-01-12T03:41:37.985Z,8.06
2023-01-12T03:44:09.036Z,7.93
2023-01-12T03:46:40.801Z,7.93
2023-01-12T03:49:12.463Z,8.01
2023-01-12T03:51:45.746Z,8.10
2023-01-12T03:54:14.253Z,8.18
2023-01-12T03:56:51.046Z,7.90
2023-01-12T03:59:19.529Z,8.14
2023-01-12T04:01:53.311Z,8.10
2023-01-12T04:04:22.943Z,7.86
2023-01-12T04:06:50.480Z,8.15
2023-01-12T04:09:19.353Z,8.09
2023-01-12T04:12:07.220Z,8.12
2023-01-12T04:14:34.772Z,7.91
2023-01-12T04:17:02.305Z,8.05
2023-01-12T04:19:32.492Z,7.95
2023-01-12T04:22:19.951Z,7.93
2023-01-12T04:24:49.363Z,7.93
2023-01-12T04:27:17.121Z,7.89
2023-01-12T04:29:45.620Z,8.03
2023-01-12T04:32:15.578Z,8.03
2023-01-12T04:34:46.246Z,7.94
2023-01-12T04:38:11.743Z,7.99
2023-01-12T04:40:39.251Z,7.88
2023-01-12T04:43:08.682Z,7.98
2023-01-12T04:45:42.901Z,8.12
2023-01-12T04:48:13.441Z,7.86
2023-01-12T04:50:45.236Z,7.89
2023-01-12T04:53:18.488Z,7.71
2023-01-12T04:55:46.246Z,7.69
2023-01-12T04:58:13.900Z,7.64
2023-01-12T05:00:41.676Z,7.68
2023-01-12T05:03:12.167Z,7.63
2023-01-12T05:05:39.956Z,7.76
2023-01-12T05:08:27.627Z,7.71
2023-01-12T05:10:56.872Z,7.75
2023-01-12T05:13:25.423Z,7.71
2023-01-12T05:15:52.888Z,7.89
2023-01-12T05:18:20.522Z,7.63
2023-01-12T05:20:48.100Z,7.70
2023-01-12T05:23:16.969Z,7.81
2023-01-12T05:25:44.491Z,7.71
2023-01-12T05:28:11.969Z,7.78
2023-01-12T05:30:40.096Z,7.84
2023-01-12T05:33:07.679Z,7.73
2023-01-12T05:35:35.250Z,7.75
2023-01-12T05:38:03.806Z,7.73
2023-01-12T05:40:32.699Z,7.67
2023-01-12T05:43:19.080Z,7.57
2023-01-12T05:45:46.774Z,7.75
2023-01-12T05:48:14.506Z,7.75
2023-01-12T05:50:42.319Z,7.78
2023-01-12T05:53:10.404Z,7.72
2023-01-12T05:55:39.749Z,7.80
2023-01-12T05:58:08.217Z,7.82
2023-01-12T06:00:37.873Z,7.84
2023-01-12T06:03:05.958Z,7.75
2023-01-12T06:05:33.556Z,7.85
2023-01-12T06:08:03.918Z,7.78
2023-01-12T06:10:34.615Z,7.80
2023-01-12T06:13:21.269Z,7.92
2023-01-12T06:15:49.090Z,7.81
2023-01-12T06:18:18.680Z,7.94
2023-01-12T06:20:46.312Z,7.91
2023-01-12T06:23:14.070Z,7.72
2023-01-12T06:25:41.584Z,7.74
2023-01-12T06:28:13.813Z,7.75
2023-01-12T06:30:41.283Z,7.77
2023-01-12T06:33:08.779Z,7.77
2023-01-12T06:35:36.299Z,7.82
2023-01-12T06:38:04.013Z,7.83
2023-01-12T06:40:31.851Z,7.79
2023-01-12T06:43:02.129Z,7.82
2023-01-12T06:45:33.499Z,7.69
2023-01-12T06:48:01.039Z,7.82
2023-01-12T06:50:28.581Z,7.71
2023-01-12T06:52:58.830Z,7.74
2023-01-12T06:55:26.493Z,7.67
2023-01-12T06:57:54.074Z,7.59
2023-01-12T07:00:22.318Z,7.55
2023-01-12T07:02:54.737Z,7.50
2023-01-12T07:05:22.349Z,7.59
2023-01-12T07:07:49.901Z,7.62
2023-01-12T07:10:18.279Z,7.38
2023-01-12T07:12:45.756Z,7.55
2023-01-12T07:15:14.488Z,7.49
2023-01-12T07:17:41.968Z,7.46
2023-01-12T07:20:12.143Z,7.63
2023-01-12T07:22:39.625Z,7.53
2023-01-12T07:25:07.751Z,7.44
2023-01-12T07:27:35.269Z,7.38
2023-01-12T07:30:02.797Z,7.42
2023-01-12T07:32:30.408Z,7.48
2023-01-12T07:34:57.893Z,7.55
2023-01-12T07:37:26.801Z,7.33
2023-01-12T07:39:54.307Z,7.45
2023-01-12T07:42:24.802Z,7.41
2023-01-12T07:44:53.071Z,7.34
2023-01-12T07:47:20.623Z,7.36
2023-01-12T07:49:48.263Z,7.26
2023-01-12T07:52:15.739Z,7.20
2023-01-12T07:54:44.553Z,7.26
2023-01-12T07:57:12.455Z,7.24
2023-01-12T07:59:40.234Z,7.31
2023-01-12T08:02:08.007Z,7.25
2023-01-12T08:04:35.526Z,7.30
2023-01-12T08:07:03.204Z,7.26
2023-01-12T08:09:31.471Z,7.25
2023-01-12T08:12:00.476Z,7.29
2023-01-12T08:14:33.204Z,7.17
2023-01-12T08:17:02.936Z,7.25
2023-01-12T08:19:37.347Z,7.31
2023-01-12T08:22:12.453Z,7.41
2023-01-12T08:24:46.673Z,7.33
2023-01-12T08:27:19.595Z,7.46
2023-01-12T08:29:50.737Z,7.36
2023-01-12T08:32:19.080Z,7.31
2023-01-12T08:36:35.648Z,7.46
2023-01-12T08:41:25.875Z,7.70
2023-01-12T08:44:06.457Z,7.67
2023-01-12T08:46:35.475Z,7.55
2023-01-12T08:49:05.720Z,7.56
2023-01-12T08:51:34.979Z,7.42
2023-01-12T08:54:03.340Z,7.59
2023-01-12T08:56:32.460Z,7.50
2023-01-12T08:59:00.061Z,7.59
2023-01-12T09:01:32.356Z,7.54
2023-01-12T09:05:15.519Z,7.59
2023-01-12T09:07:47.224Z,7.72
2023-01-12T09:10:15.265Z,7.75
2023-01-12T09:12:44.658Z,7.69
2023-01-12T09:15:12.768Z,7.81
2023-01-12T09:17:40.317Z,7.94
2023-01-12T09:20:08.258Z,7.90
2023-01-12T09:22:35.836Z,7.84
2023-01-12T09:25:03.405Z,7.75
2023-01-12T09:27:33.358Z,7.96
2023-01-12T09:30:02.315Z,8.16
2023-01-12T09:32:36.917Z,8.11
2023-01-12T09:35:05.056Z,7.92
2023-01-12T09:37:33.210Z,8.06
2023-01-12T09:40:01.107Z,8.30
2023-01-12T09:42:46.173Z,8.34
2023-01-12T09:45:37.618Z,8.35
2023-01-12T09:48:06.722Z,8.49
2023-01-12T09:50:36.550Z,8.32
2023-01-12T09:53:06.994Z,8.41
2023-01-12T09:55:42.814Z,8.40
2023-01-12T09:58:21.237Z,8.44
2023-01-12T10:00:53.579Z,8.56
2023-01-12T10:03:28.356Z,8.54
2023-01-12T10:05:58.221Z,8.57
2023-01-12T10:08:31.649Z,8.58
2023-01-12T10:11:06.683Z,8.59
2023-01-12T10:13:45.493Z,8.56
2023-01-12T10:16:18.401Z,8.58
2023-01-12T10:18:47.987Z,8.51
2023-01-12T10:21:15.609Z,8.59
2023-01-12T10:23:43.474Z,8.63
2023-01-12T10:26:18.673Z,8.67
2023-01-12T10:28:47.253Z,8.79
2023-01-12T10:31:18.083Z,8.71
2023-01-12T10:34:03.069Z,8.91
2023-01-12T10:36:31.110Z,8.90
2023-01-12T10:39:03.030Z,8.77
2023-01-12T10:41:31.418Z,8.87
2023-01-12T10:44:15.252Z,9.05
2023-01-12T10:46:44.172Z,9.05
2023-01-12T10:49:19.638Z,9.31
2023-01-12T10:51:53.688Z,9.28
2023-01-12T10:54:22.114Z,9.37
2023-01-12T10:56:56.782Z,9.34
2023-01-12T10:59:26.542Z,9.26
2023-01-12T11:02:13.812Z,9.28
2023-01-12T11:04:43.051Z,9.22
2023-01-12T11:07:12.098Z,9.30
2023-01-12T11:09:40.446Z,9.33
2023-01-12T11:12:21.332Z,9.37
2023-01-12T11:14:59.438Z,9.50
2023-01-12T11:17:39.780Z,9.60
2023-01-12T11:20:16.469Z,9.46
2023-01-12T11:22:44.296Z,9.41
2023-01-12T11:25:14.946Z,9.47
2023-01-12T11:27:46.724Z,9.49
2023-01-12T11:30:20.939Z,9.45
2023-01-12T11:32:55.243Z,9.38
2023-01-12T11:35:34.932Z,9.35
2023-01-12T11:38:11.236Z,9.34
2023-01-12T11:40:39.783Z,9.58
2023-01-12T11:43:34.281Z,9.57
2023-01-12T11:46:04.981Z,9.53
2023-01-12T11:48:38.520Z,9.48
2023-01-12T11:51:06.168Z,9.57
2023-01-12T11:53:36.981Z,9.36
2023-01-12T11:56:11.249Z,9.31
2023-01-12T11:58:46.444Z,9.48
2023-01-12T12:01:19.045Z,9.64
2023-01-12T12:03:59.454Z,9.62
2023-01-12T12:06:46.170Z,9.78
2023-01-12T12:09:27.393Z,9.65
2023-01-12T12:11:58.561Z,9.90
2023-01-12T12:14:44.552Z,9.63
2023-01-12T12:17:15.495Z,9.83
2023-01-12T12:19:52.257Z,9.96
2023-01-12T12:22:31.042Z,9.84
2023-01-12T12:25:08.810Z,9.82
2023-01-12T12:27:48.756Z,9.90
2023-01-12T12:30:33.566Z,9.92
2023-01-12T12:33:06.415Z,9.94
2023-01-12T12:35:45.125Z,9.77
2023-01-12T12:38:24.586Z,9.89
2023-01-12T12:41:20.170Z,9.87
2023-01-12T12:44:13.092Z,9.89
2023-01-12T12:46:48.576Z,9.90
2023-01-12T12:49:22.066Z,9.96
2023-01-12T12:51:52.152Z,9.84
2023-01-12T12:54:21.489Z,10.14
2023-01-12T12:56:49.946Z,10.04
2023-01-12T12:59:54.464Z,9.94
2023-01-12T13:03:02.129Z,10.06
2023-01-12T13:05:44.763Z,10.05
2023-01-12T13:08:22.051Z,10.03
2023-01-12T13:10:52.248Z,10.04
2023-01-12T13:13:27.333Z,9.95
2023-01-12T13:16:45.734Z,9.97
2023-01-12T13:19:15.641Z,9.93
2023-01-12T13:21:56.313Z,9.94
2023-01-12T13:24:40.436Z,10.06
2023-01-12T13:27:47.294Z,9.98
2023-01-12T13:30:39.257Z,10.04
2023-01-12T13:33:18.795Z,9.91
2023-01-12T13:36:02.457Z,9.92
2023-01-12T13:38:38.594Z,9.83
2023-01-12T13:41:42.935Z,9.86
2023-01-12T13:44:16.157Z,9.98
2023-01-12T13:46:46.360Z,10.03
2023-01-12T13:49:30.391Z,9.97
2023-01-12T13:52:03.731Z,9.95
2023-01-12T13:54:31.993Z,9.95
2023-01-12T13:57:02.824Z,10.04
2023-01-12T13:59:31.220Z,9.91
2023-01-12T14:01:59.302Z,9.98
2023-01-12T14:04:37.668Z,9.90
2023-01-12T14:07:12.859Z,9.87
2023-01-12T14:09:47.746Z,10.03
2023-01-12T14:13:07.048Z,9.88
2023-01-12T14:15:55.927Z,9.83
2023-01-12T14:18:25.538Z,10.05
2023-01-12T14:20:55.072Z,9.94
2023-01-12T14:23:29.035Z,9.80
2023-01-12T14:26:08.528Z,10.01
2023-01-12T14:28:37.027Z,9.99
2023-01-12T14:31:07.434Z,9.95
2023-01-12T14:33:37.975Z,9.89
2023-01-12T14:36:08.165Z,9.89
2023-01-12T14:38:36.578Z,9.87
2023-01-12T14:41:28.397Z,9.73
2023-01-12T14:44:13.830Z,9.86
2023-01-12T14:46:50.267Z,9.81
2023-01-12T14:49:21.172Z,9.96
2023-01-12T14:51:52.644Z,9.91
2023-01-12T14:54:21.901Z,9.95
2023-01-12T14:56:56.292Z,9.94
2023-01-12T14:59:25.700Z,9.85
2023-01-12T15:01:55.136Z,9.67
2023-01-12T15:04:24.948Z,9.75
2023-01-12T15:07:01.956Z,9.89
2023-01-12T15:09:31.719Z,9.96
2023-01-12T15:11:59.815Z,9.89
2023-01-12T15:14:30.068Z,9.82
2023-01-12T15:17:16.454Z,9.99
2023-01-12T15:20:01.234Z,9.75
2023-01-12T15:22:47.359Z,9.84
2023-01-12T15:25:34.224Z,9.80
2023-01-12T15:28:02.720Z,9.83
2023-01-12T15:30:31.243Z,9.75
2023-01-12T15:33:01.013Z,9.81
2023-01-12T15:35:30.400Z,9.63
2023-01-12T15:38:05.212Z,9.63
2023-01-12T15:40:35.019Z,9.83
2023-01-12T15:43:04.731Z,9.69
2023-01-12T15:45:35.092Z,9.61
2023-01-12T15:48:04.926Z,9.77
2023-01-12T15:50:33.283Z,9.77
2023-01-12T15:53:01.564Z,9.69
2023-01-12T15:55:31.340Z,9.74
2023-01-12T15:57:59.177Z,9.60
2023-01-12T16:00:30.320Z,9.48
2023-01-12T16:02:58.070Z,9.77
2023-01-12T16:05:27.412Z,9.60
2023-01-12T16:07:55.347Z,9.61
2023-01-12T16:10:23.205Z,9.61
2023-01-12T16:12:50.852Z,9.64
2023-01-12T16:15:20.311Z,9.66
2023-01-12T16:17:48.750Z,9.65
2023-01-12T16:20:17.526Z,9.48
2023-01-12T16:22:47.651Z,9.76
2023-01-12T16:25:16.255Z,9.83
2023-01-12T16:27:44.716Z,9.84
2023-01-12T16:30:16.146Z,9.78
2023-01-12T16:32:46.696Z,9.73
2023-01-12T16:35:15.736Z,9.74
2023-01-12T16:37:44.668Z,9.80
2023-01-12T16:40:15.044Z,9.70
2023-01-12T16:42:43.080Z,9.74
2023-01-12T16:45:11.807Z,9.71
2023-01-12T16:47:40.161Z,9.64
2023-01-12T16:50:08.699Z,9.63
2023-01-12T16:52:42.438Z,9.53
2023-01-12T16:55:11.003Z,9.68
2023-01-12T16:57:41.065Z,9.54
2023-01-12T17:00:10.435Z,9.51
2023-01-12T17:02:38.299Z,9.60
2023-01-12T17:05:08.454Z,9.66
2023-01-12T17:07:39.229Z,9.77
2023-01-12T17:10:09.021Z,9.56
2023-01-12T17:12:36.712Z,9.68
2023-01-12T17:15:09.429Z,9.68
2023-01-12T17:17:38.294Z,9.85
2023-01-12T17:20:06.865Z,9.75
2023-01-12T17:22:34.737Z,9.49
2023-01-12T17:25:02.563Z,9.59
2023-01-12T17:27:32.043Z,9.58
2023-01-12T17:29:59.794Z,9.62
2023-01-12T17:32:29.624Z,9.56
2023-01-12T17:34:57.794Z,9.79
2023-01-12T17:37:25.893Z,9.83
2023-01-12T17:39:53.672Z,9.72
2023-01-12T17:42:39.471Z,9.82
2023-01-12T17:45:08.606Z,9.93
2023-01-12T17:47:38.179Z,9.69
2023-01-12T17:50:06.578Z,9.69
2023-01-12T17:52:35.811Z,9.44
2023-01-12T17:55:04.474Z,9.40
2023-01-12T17:57:36.900Z,9.48
2023-01-12T18:00:06.726Z,9.63
2023-01-12T18:02:42.826Z,9.39
2023-01-12T18:05:14.013Z,9.59
2023-01-12T18:07:43.655Z,9.56
2023-01-12T18:10:13.072Z,9.43
2023-01-12T18:12:42.639Z,9.49
2023-01-12T18:15:19.987Z,9.53
2023-01-12T18:17:49.137Z,9.51
2023-01-12T18:20:18.295Z,9.48
2023-01-12T18:22:46.385Z,9.56
2023-01-12T18:25:15.267Z,9.65
2023-01-12T18:27:45.045Z,9.51
2023-01-12T18:30:30.276Z,9.60
2023-01-12T18:33:06.839Z,9.62
2023-01-12T18:35:37.245Z,9.60
2023-01-12T18:38:05.427Z,9.74
2023-01-12T18:40:34.326Z,9.73
2023-01-12T18:43:04.852Z,9.50
2023-01-12T18:45:34.011Z,9.40
2023-01-12T18:48:19.897Z,9.66
2023-01-12T18:51:22.925Z,9.37
2023-01-12T18:53:51.972Z,9.49
2023-01-12T18:56:19.769Z,9.52
2023-01-12T18:58:48.872Z,9.51
2023-01-12T19:01:20.023Z,9.54
2023-01-12T19:04:03.490Z,9.38
2023-01-12T19:09:53.414Z,9.80
2023-01-12T19:12:30.647Z,9.57
2023-01-12T19:15:30.055Z,9.53
2023-01-12T19:17:57.965Z,9.60
2023-01-12T19:20:29.049Z,9.66
2023-01-12T19:23:16.902Z,9.53
2023-01-12T19:26:02.764Z,9.42
2023-01-12T19:28:36.303Z,9.52
2023-01-12T19:31:06.269Z,9.47
2023-01-12T19:33:34.299Z,9.46
2023-01-12T19:36:05.914Z,9.32
2023-01-12T19:38:35.893Z,9.60
2023-01-12T19:41:11.508Z,9.52
2023-01-12T19:43:41.012Z,9.57
2023-01-12T19:46:08.709Z,9.54
2023-01-12T19:48:37.479Z,9.74
2023-01-12T19:51:09.520Z,9.47
2023-01-12T19:53:39.889Z,9.72
2023-01-12T19:56:11.186Z,9.63
2023-01-12T19:58:39.047Z,9.39
2023-01-12T20:01:07.674Z,9.71
2023-01-12T20:03:36.144Z,9.63
2023-01-12T20:06:06.714Z,9.65
2023-01-12T20:08:34.740Z,9.63
2023-01-12T20:11:05.458Z,9.63
2023-01-12T20:13:33.515Z,9.48
2023-01-12T20:16:06.516Z,9.36
2023-01-12T20:18:34.345Z,9.41
2023-01-12T20:21:03.400Z,9.52
2023-01-12T20:23:31.625Z,9.43
2023-01-12T20:25:59.361Z,9.44
2023-01-12T20:28:31.441Z,9.41
2023-01-12T20:30:59.492Z,9.58
2023-01-12T20:33:28.294Z,9.73
2023-01-12T20:35:55.913Z,9.59
2023-01-12T20:38:25.166Z,9.60
2023-01-12T20:40:52.808Z,9.71
2023-01-12T20:43:22.546Z,9.59
2023-01-12T20:45:52.388Z,9.61
2023-01-12T20:48:20.394Z,9.46
2023-01-12T20:50:48.539Z,9.63
2023-01-12T20:53:17.108Z,9.66
2023-01-12T20:55:45.377Z,9.55
2023-01-12T20:58:16.124Z,9.56
2023-01-12T21:00:43.996Z,9.64
2023-01-12T21:03:13.265Z,9.64
2023-01-12T21:05:44.596Z,9.49
2023-01-12T21:08:13.177Z,9.55
2023-01-12T21:10:42.470Z,9.66
2023-01-12T21:13:10.400Z,9.57
2023-01-12T21:15:38.532Z,9.61
2023-01-12T21:18:06.167Z,9.61
2023-01-12T21:20:35.690Z,9.59
2023-01-12T21:23:04.613Z,9.86
2023-01-12T21:25:32.219Z,9.53
2023-01-12T21:27:59.786Z,9.66
2023-01-12T21:30:29.744Z,9.63
2023-01-12T21:32:57.778Z,9.62
2023-01-12T21:35:26.385Z,9.76
2023-01-12T21:37:55.456Z,9.76
2023-01-12T21:40:22.953Z,9.84
2023-01-12T21:43:09.295Z,9.72
2023-01-12T21:45:38.063Z,9.60
2023-01-12T21:48:06.068Z,9.50
2023-01-12T21:50:34.270Z,9.41
2023-01-12T21:53:03.975Z,9.39
2023-01-12T21:55:32.292Z,9.44
2023-01-12T21:58:01.757Z,9.42
2023-01-12T22:00:29.984Z,9.36
2023-01-12T22:03:00.417Z,9.49
2023-01-12T22:05:27.994Z,9.63
2023-01-12T22:07:57.669Z,9.60
2023-01-12T22:10:30.392Z,9.61
2023-01-12T22:12:59.854Z,9.77
2023-01-12T22:15:29.093Z,9.60
2023-01-12T22:17:56.990Z,9.54
2023-01-12T22:20:25.450Z,9.63
2023-01-12T22:22:54.132Z,9.55
2023-01-12T22:25:21.959Z,9.52
2023-01-12T22:27:50.986Z,9.56
2023-01-12T22:30:20.577Z,9.54
2023-01-12T22:32:48.571Z,9.53
2023-01-12T22:35:16.456Z,9.65
2023-01-12T22:37:44.037Z,9.43
2023-01-12T22:40:13.075Z,9.54
2023-01-12T22:42:58.311Z,9.49
2023-01-12T22:45:27.418Z,9.63
2023-01-12T22:47:58.771Z,9.57
2023-01-12T22:50:26.414Z,9.55
2023-01-12T22:52:54.536Z,9.35
2023-01-12T22:55:23.395Z,9.49
2023-01-12T22:57:51.239Z,9.42
2023-01-12T23:00:20.741Z,9.39
2023-01-12T23:03:02.636Z,9.57
2023-01-12T23:05:33.428Z,9.57
2023-01-12T23:08:01.047Z,9.43
2023-01-12T23:10:30.236Z,9.59
2023-01-12T23:13:15.851Z,9.74
2023-01-12T23:15:46.981Z,9.57
2023-01-12T23:18:17.571Z,9.65
2023-01-12T23:20:45.941Z,9.66
2023-01-12T23:23:13.835Z,9.70
2023-01-12T23:25:44.327Z,9.59
2023-01-12T23:28:12.883Z,9.60
2023-01-12T23:30:41.157Z,9.55
2023-01-12T23:33:08.886Z,9.57
2023-01-12T23:35:39.484Z,9.57
2023-01-12T23:38:07.511Z,9.46
2023-01-12T23:40:35.238Z,9.67
2023-01-12T23:43:03.208Z,9.60
2023-01-12T23:45:33.801Z,9.58
2023-01-12T23:48:01.368Z,9.58
2023-01-12T23:50:28.916Z,9.70
2023-01-12T23:53:00.734Z,9.59
2023-01-12T23:55:29.918Z,9.69
2023-01-12T23:57:57.980Z,9.57
